Messwerte Portage

Temperatur

Temperatur
°C
1594587600 13.00 13.00 13
1594591200 14.00 14.00 13
1594594800 15.00 15.00 12
1594598400 16.00 16.00 12
1594602000 17.00 17.00 12
1594605600 18.00 18.00 12
1594609200 19.00 19.00 12
1594612800 20.00 20.00 12
1594616400 21.00 21.00 12
1594620000 22.00 22.00 11
1594623600 23.00 23.00 11
1594627200 0.00 0.00 12
1594630800 1.00 1.00 12
1594634400 2.00 2.00 11
1594638000 3.00 3.00 11
1594641600 4.00 4.00 11
1594645200 5.00 5.00 11
1594648800 6.00 6.00 11
1594652400 7.00 7.00 10
1594656000 8.00 8.00 11
1594659600 9.00 9.00 11
1594663200 10.00 10.00 12
1594666800 11.00 11.00 13
1594670400 12.00 12.00 14

Aktuellste Messwerte

Wettercharakter
Wetter: bedeckt
Temperatur
14 °C
Feuchtigkeit
80 %
Wind
5 km/h, -
Luftdruck
1015 hPa
Messzeit: 13. Juli 2020, 13.00Datenquelle: METAR

Weitere Messstationen in der Nähe

Messstation Temperatur Entfernung
Ft. Richardson 19 °C 69 km
Anchorage 20 °C 72 km
Anchorage – Elmendor 20 °C 73 km
Anchorage 18 °C 73 km
Anchorage 19 °C 75 km
Birchwood 18 °C 79 km
Seward 13 °C 82 km

Wind

Windrichtung Böen Mittelwind
° km/h km/h
1594587600 13.00 12.00 - 13.00 80° 40 20
1594591200 14.00 13.00 - 14.00 80° 35 15
1594594800 15.00 14.00 - 15.00 10
1594598400 16.00 15.00 - 16.00 10
1594602000 17.00 16.00 - 17.00 5
1594605600 18.00 17.00 - 18.00 150° 10
1594609200 19.00 18.00 - 19.00 130° 15
1594612800 20.00 19.00 - 20.00 120° 10
1594616400 21.00 20.00 - 21.00
1594620000 22.00 21.00 - 22.00 120° 15
1594623600 23.00 22.00 - 23.00
1594627200 0.00 23.00 - 0.00
1594630800 1.00 0.00 - 1.00 0
1594634400 2.00 1.00 - 2.00 5
1594638000 3.00 2.00 - 3.00 5
1594641600 4.00 3.00 - 4.00 90° 10
1594645200 5.00 4.00 - 5.00 80° 5
1594648800 6.00 5.00 - 6.00 5
1594652400 7.00 6.00 - 7.00 100° 10
1594656000 8.00 7.00 - 8.00 5
1594659600 9.00 8.00 - 9.00 5
1594663200 10.00 9.00 - 10.00 5
1594666800 11.00 10.00 - 11.00
1594670400 12.00 11.00 - 12.00 10

Ihre Wetterstation

Fehlt Ihre Wetterstation auf unserem Portal?

Schreiben Sie an network@meteonews.ch

Klima

Wann ist es am wärmsten? Wann regnet es am wenigsten? Unsere Klimadaten geben Auskunft.